PWSweather.com
Personal Weather Stations
Station Observations
KC4KQE
Superstition Mountains, Apache Junction, AZ 85119

Superstition MountainsApache Junction, AZ 85119

Lat: 33.41578, Lon: -111.49328

Elevation: 1850

Station Type: Davis Vantage Pro2 Plus

http://kc4kqe.org/

Latest ConditionsUpdated 6:20:05 AM MST Wednesday, Jul 29, 2015
Currently Today's Max Today's Min Today's Average
Temperature 82.7°F28.2°C 84.6°F29.2°C 82.5°F28.1°C 83.1°F28.4°C
Dew Point 58.5°F14.7°C 63.2°F17.3°C 58.5°F14.7°C 60.3°F15.7°C
Winds Calm Calm 8.0 mph S12.9 kmh S - 1.3 mph 2.1 kmh
Wind Gusts 1.0 mph1.6 kmh 11.0 mph17.7 kmh - -
Humidity 44% 49% 44% 46%
Pressure 29.96 in1014.6 mb 29.96 in1014.6 mb 29.93 in1013.5 mb -
Hour Temp Dew Point Humidity Winds Wind Gusts Pressure Precip Precip Rate Daily Precip Total
06:20 AM 82.7°F28.2°C 58.5°F14.7°C 44% Calm Calm 1.0 mph1.6 kmh 29.96 in1014.6 mb 0.00 in0.0 mm 0.00 in0.0 mm 0.00 in0.0 mm
06:15 AM 82.6°F28.1°C 59.0°F15.0°C 45% Calm Calm 1.0 mph1.6 kmh 29.96 in1014.6 mb 0.00 in0.0 mm 0.00 in0.0 mm 0.00 in0.0 mm
06:10 AM 82.6°F28.1°C 59.0°F15.0°C 45% Calm Calm 2.0 mph3.2 kmh 29.96 in1014.6 mb 0.00 in0.0 mm 0.00 in0.0 mm 0.00 in0.0 mm
06:05 AM 82.6°F28.1°C 59.0°F15.0°C 45% Calm Calm 2.0 mph3.2 kmh 29.96 in1014.6 mb 0.00 in0.0 mm 0.00 in0.0 mm 0.00 in0.0 mm
06:00 AM 82.6°F28.1°C 59.0°F15.0°C 45% Calm Calm 3.0 mph4.8 kmh 29.95 in1014.2 mb 0.00 in0.0 mm 0.00 in0.0 mm 0.00 in0.0 mm
05:55 AM 82.6°F28.1°C 59.0°F15.0°C 45% 2.0 mph SW3.2 kmh SW 3.0 mph4.8 kmh 29.95 in1014.2 mb 0.00 in0.0 mm 0.00 in0.0 mm 0.00 in0.0 mm
05:50 AM 82.6°F28.1°C 59.0°F15.0°C 45% 2.0 mph S3.2 kmh S 3.0 mph4.8 kmh 29.95 in1014.2 mb 0.00 in0.0 mm 0.00 in0.0 mm 0.00 in0.0 mm
05:45 AM 82.6°F28.1°C 59.0°F15.0°C 45% 1.0 mph SSE1.6 kmh SSE 2.0 mph3.2 kmh 29.95 in1014.2 mb 0.00 in0.0 mm 0.00 in0.0 mm 0.00 in0.0 mm
05:40 AM 82.6°F28.1°C 59.0°F15.0°C 45% Calm Calm -- 29.95 in1014.2 mb 0.00 in0.0 mm 0.00 in0.0 mm 0.00 in0.0 mm
05:35 AM 82.6°F28.1°C 59.0°F15.0°C 45% Calm Calm -- 29.95 in1014.2 mb 0.00 in0.0 mm 0.00 in0.0 mm 0.00 in0.0 mm
05:30 AM 82.6°F28.1°C 59.0°F15.0°C 45% Calm Calm 1.0 mph1.6 kmh 29.95 in1014.2 mb 0.00 in0.0 mm 0.00 in0.0 mm 0.00 in0.0 mm
05:25 AM 82.6°F28.1°C 59.0°F15.0°C 45% Calm Calm 1.0 mph1.6 kmh 29.95 in1014.2 mb 0.00 in0.0 mm 0.00 in0.0 mm 0.00 in0.0 mm
05:20 AM 82.7°F28.2°C 59.1°F15.1°C 45% Calm Calm 2.0 mph3.2 kmh 29.95 in1014.2 mb 0.00 in0.0 mm 0.00 in0.0 mm 0.00 in0.0 mm
05:15 AM 82.7°F28.2°C 59.1°F15.1°C 45% 1.0 mph SSE1.6 kmh SSE 2.0 mph3.2 kmh 29.95 in1014.2 mb 0.00 in0.0 mm 0.00 in0.0 mm 0.00 in0.0 mm
05:10 AM 82.8°F28.2°C 59.2°F15.1°C 45% Calm Calm 2.0 mph3.2 kmh 29.95 in1014.2 mb 0.00 in0.0 mm 0.00 in0.0 mm 0.00 in0.0 mm
05:05 AM 82.8°F28.2°C 59.2°F15.1°C 45% 1.0 mph SSE1.6 kmh SSE 2.0 mph3.2 kmh 29.94 in1013.9 mb 0.00 in0.0 mm 0.00 in0.0 mm 0.00 in0.0 mm
05:00 AM 82.8°F28.2°C 59.8°F15.4°C 46% Calm Calm 1.0 mph1.6 kmh 29.94 in1013.9 mb 0.00 in0.0 mm 0.00 in0.0 mm 0.00 in0.0 mm
04:55 AM 82.9°F28.3°C 59.9°F15.5°C 46% Calm Calm 2.0 mph3.2 kmh 29.94 in1013.9 mb 0.00 in0.0 mm 0.00 in0.0 mm 0.00 in0.0 mm
04:50 AM 82.9°F28.3°C 59.9°F15.5°C 46% 2.0 mph SSE3.2 kmh SSE 5.0 mph8.0 kmh 29.94 in1013.9 mb 0.00 in0.0 mm 0.00 in0.0 mm 0.00 in0.0 mm
04:45 AM 82.9°F28.3°C 59.9°F15.5°C 46% 2.0 mph SE3.2 kmh SE 3.0 mph4.8 kmh 29.94 in1013.9 mb 0.00 in0.0 mm 0.00 in0.0 mm 0.00 in0.0 mm
04:40 AM 82.8°F28.2°C 59.8°F15.4°C 46% Calm Calm 2.0 mph3.2 kmh 29.94 in1013.9 mb 0.00 in0.0 mm 0.00 in0.0 mm 0.00 in0.0 mm
04:35 AM 82.7°F28.2°C 59.1°F15.1°C 45% 2.0 mph NE3.2 kmh NE 3.0 mph4.8 kmh 29.94 in1013.9 mb 0.00 in0.0 mm 0.00 in0.0 mm 0.00 in0.0 mm
04:30 AM 82.7°F28.2°C 59.7°F15.4°C 46% 1.0 mph NE1.6 kmh NE 4.0 mph6.4 kmh 29.93 in1013.5 mb 0.00 in0.0 mm 0.00 in0.0 mm 0.00 in0.0 mm
04:25 AM 82.6°F28.1°C 59.6°F15.3°C 46% 3.0 mph NE4.8 kmh NE 4.0 mph6.4 kmh 29.93 in1013.5 mb 0.00 in0.0 mm 0.00 in0.0 mm 0.00 in0.0 mm
04:20 AM 82.6°F28.1°C 60.2°F15.7°C 47% 3.0 mph NE4.8 kmh NE 4.0 mph6.4 kmh 29.94 in1013.9 mb 0.00 in0.0 mm 0.00 in0.0 mm 0.00 in0.0 mm
04:15 AM 82.6°F28.1°C 60.2°F15.7°C 47% 3.0 mph NE4.8 kmh NE 3.0 mph4.8 kmh 29.93 in1013.5 mb 0.00 in0.0 mm 0.00 in0.0 mm 0.00 in0.0 mm
04:10 AM 82.5°F28.1°C 60.2°F15.7°C 47% 2.0 mph NE3.2 kmh NE 4.0 mph6.4 kmh 29.93 in1013.5 mb 0.00 in0.0 mm 0.00 in0.0 mm 0.00 in0.0 mm
04:05 AM 82.5°F28.1°C 60.2°F15.7°C 47% 2.0 mph NE3.2 kmh NE 6.0 mph9.7 kmh 29.93 in1013.5 mb 0.00 in0.0 mm 0.00 in0.0 mm 0.00 in0.0 mm
04:00 AM 82.5°F28.1°C 60.7°F15.9°C 48% 2.0 mph ENE3.2 kmh ENE 4.0 mph6.4 kmh 29.94 in1013.9 mb 0.00 in0.0 mm 0.00 in0.0 mm 0.00 in0.0 mm
03:55 AM 82.5°F28.1°C 60.2°F15.7°C 47% 1.0 mph ENE1.6 kmh ENE 5.0 mph8.0 kmh 29.94 in1013.9 mb 0.00 in0.0 mm 0.00 in0.0 mm 0.00 in0.0 mm
03:50 AM 82.5°F28.1°C 60.2°F15.7°C 47% 2.0 mph ENE3.2 kmh ENE 4.0 mph6.4 kmh 29.94 in1013.9 mb 0.00 in0.0 mm 0.00 in0.0 mm 0.00 in0.0 mm
03:45 AM 82.5°F28.1°C 59.6°F15.3°C 46% 1.0 mph E1.6 kmh E 3.0 mph4.8 kmh 29.94 in1013.9 mb 0.00 in0.0 mm 0.00 in0.0 mm 0.00 in0.0 mm
03:40 AM 82.5°F28.1°C 58.9°F14.9°C 45% Calm Calm 2.0 mph3.2 kmh 29.94 in1013.9 mb 0.00 in0.0 mm 0.00 in0.0 mm 0.00 in0.0 mm
03:35 AM 82.6°F28.1°C 59.0°F15.0°C 45% Calm Calm -- 29.94 in1013.9 mb 0.00 in0.0 mm 0.00 in0.0 mm 0.00 in0.0 mm
03:30 AM 82.7°F28.2°C 59.1°F15.1°C 45% Calm Calm -- 29.94 in1013.9 mb 0.00 in0.0 mm 0.00 in0.0 mm 0.00 in0.0 mm
03:25 AM 82.7°F28.2°C 59.7°F15.4°C 46% Calm Calm -- 29.94 in1013.9 mb 0.00 in0.0 mm 0.00 in0.0 mm 0.00 in0.0 mm
03:20 AM 82.8°F28.2°C 59.8°F15.4°C 46% Calm Calm -- 29.94 in1013.9 mb 0.00 in0.0 mm 0.00 in0.0 mm 0.00 in0.0 mm
03:15 AM 82.9°F28.3°C 59.9°F15.5°C 46% Calm Calm -- 29.94 in1013.9 mb 0.00 in0.0 mm 0.00 in0.0 mm 0.00 in0.0 mm
03:10 AM 83.0°F28.3°C 60.0°F15.6°C 46% Calm Calm -- 29.94 in1013.9 mb 0.00 in0.0 mm 0.00 in0.0 mm 0.00 in0.0 mm
03:05 AM 83.1°F28.4°C 60.1°F15.6°C 46% Calm Calm -- 29.94 in1013.9 mb 0.00 in0.0 mm 0.00 in0.0 mm 0.00 in0.0 mm
03:00 AM 83.1°F28.4°C 59.5°F15.3°C 45% Calm Calm -- 29.94 in1013.9 mb 0.00 in0.0 mm 0.00 in0.0 mm 0.00 in0.0 mm
02:55 AM 83.1°F28.4°C 59.5°F15.3°C 45% Calm Calm 3.0 mph4.8 kmh 29.94 in1013.9 mb 0.00 in0.0 mm 0.00 in0.0 mm 0.00 in0.0 mm
02:50 AM 83.0°F28.3°C 59.4°F15.2°C 45% 1.0 mph SE1.6 kmh SE 5.0 mph8.0 kmh 29.94 in1013.9 mb 0.00 in0.0 mm 0.00 in0.0 mm 0.00 in0.0 mm
02:45 AM 83.0°F28.3°C 59.4°F15.2°C 45% 2.0 mph SE3.2 kmh SE 5.0 mph8.0 kmh 29.94 in1013.9 mb 0.00 in0.0 mm 0.00 in0.0 mm 0.00 in0.0 mm
02:40 AM 83.0°F28.3°C 59.4°F15.2°C 45% 1.0 mph SE1.6 kmh SE 4.0 mph6.4 kmh 29.94 in1013.9 mb 0.00 in0.0 mm 0.00 in0.0 mm 0.00 in0.0 mm
02:35 AM 83.0°F28.3°C 60.0°F15.6°C 46% 3.0 mph SSE4.8 kmh SSE 6.0 mph9.7 kmh 29.94 in1013.9 mb 0.00 in0.0 mm 0.00 in0.0 mm 0.00 in0.0 mm
02:30 AM 83.0°F28.3°C 60.6°F15.9°C 47% Calm Calm 5.0 mph8.0 kmh 29.94 in1013.9 mb 0.00 in0.0 mm 0.00 in0.0 mm 0.00 in0.0 mm
02:25 AM 83.1°F28.4°C 60.7°F15.9°C 47% 1.0 mph SE1.6 kmh SE 4.0 mph6.4 kmh 29.94 in1013.9 mb 0.00 in0.0 mm 0.00 in0.0 mm 0.00 in0.0 mm
02:20 AM 83.2°F28.4°C 61.4°F16.3°C 48% 2.0 mph S3.2 kmh S 6.0 mph9.7 kmh 29.94 in1013.9 mb 0.00 in0.0 mm 0.00 in0.0 mm 0.00 in0.0 mm
02:15 AM 83.2°F28.4°C 61.4°F16.3°C 48% 2.0 mph S3.2 kmh S 5.0 mph8.0 kmh 29.94 in1013.9 mb 0.00 in0.0 mm 0.00 in0.0 mm 0.00 in0.0 mm
02:10 AM 83.3°F28.5°C 61.5°F16.4°C 48% 1.0 mph SSE1.6 kmh SSE 5.0 mph8.0 kmh 29.94 in1013.9 mb 0.00 in0.0 mm 0.00 in0.0 mm 0.00 in0.0 mm
02:05 AM 83.4°F28.6°C 61.6°F16.4°C 48% 3.0 mph SE4.8 kmh SE 3.0 mph4.8 kmh 29.94 in1013.9 mb 0.00 in0.0 mm 0.00 in0.0 mm 0.00 in0.0 mm
02:00 AM 83.3°F28.5°C 61.5°F16.4°C 48% 1.0 mph SSE1.6 kmh SSE 3.0 mph4.8 kmh 29.94 in1013.9 mb 0.00 in0.0 mm 0.00 in0.0 mm 0.00 in0.0 mm
01:55 AM 83.3°F28.5°C 61.5°F16.4°C 48% 1.0 mph SE1.6 kmh SE 4.0 mph6.4 kmh 29.94 in1013.9 mb 0.00 in0.0 mm 0.00 in0.0 mm 0.00 in0.0 mm
01:50 AM 83.3°F28.5°C 61.5°F16.4°C 48% Calm Calm 2.0 mph3.2 kmh 29.94 in1013.9 mb 0.00 in0.0 mm 0.00 in0.0 mm 0.00 in0.0 mm
01:45 AM 83.4°F28.6°C 61.6°F16.4°C 48% 1.0 mph SSE1.6 kmh SSE 4.0 mph6.4 kmh 29.94 in1013.9 mb 0.00 in0.0 mm 0.00 in0.0 mm 0.00 in0.0 mm
01:40 AM 83.3°F28.5°C 61.5°F16.4°C 48% 1.0 mph SSE1.6 kmh SSE 3.0 mph4.8 kmh 29.94 in1013.9 mb 0.00 in0.0 mm 0.00 in0.0 mm 0.00 in0.0 mm
01:35 AM 83.3°F28.5°C 62.1°F16.7°C 49% 2.0 mph SE3.2 kmh SE 5.0 mph8.0 kmh 29.94 in1013.9 mb 0.00 in0.0 mm 0.00 in0.0 mm 0.00 in0.0 mm
01:30 AM 83.3°F28.5°C 62.1°F16.7°C 49% 2.0 mph SE3.2 kmh SE 3.0 mph4.8 kmh 29.94 in1013.9 mb 0.00 in0.0 mm 0.00 in0.0 mm 0.00 in0.0 mm
01:25 AM 83.4°F28.6°C 61.6°F16.4°C 48% 2.0 mph SSW3.2 kmh SSW 2.0 mph3.2 kmh 29.94 in1013.9 mb 0.00 in0.0 mm 0.00 in0.0 mm 0.00 in0.0 mm
01:20 AM 83.5°F28.6°C 61.7°F16.5°C 48% Calm Calm 3.0 mph4.8 kmh 29.94 in1013.9 mb 0.00 in0.0 mm 0.00 in0.0 mm 0.00 in0.0 mm
01:15 AM 83.6°F28.7°C 61.8°F16.6°C 48% Calm Calm 1.0 mph1.6 kmh 29.94 in1013.9 mb 0.00 in0.0 mm 0.00 in0.0 mm 0.00 in0.0 mm
01:10 AM 83.6°F28.7°C 62.3°F16.8°C 49% Calm Calm 3.0 mph4.8 kmh 29.94 in1013.9 mb 0.00 in0.0 mm 0.00 in0.0 mm 0.00 in0.0 mm
01:05 AM 83.6°F28.7°C 61.2°F16.2°C 47% 3.0 mph SSW4.8 kmh SSW 7.0 mph11.3 kmh 29.94 in1013.9 mb 0.00 in0.0 mm 0.00 in0.0 mm 0.00 in0.0 mm
01:00 AM 83.6°F28.7°C 61.2°F16.2°C 47% 2.0 mph S3.2 kmh S 6.0 mph9.7 kmh 29.94 in1013.9 mb 0.00 in0.0 mm 0.00 in0.0 mm 0.00 in0.0 mm
12:55 AM 83.6°F28.7°C 61.2°F16.2°C 47% 4.0 mph SSW6.4 kmh SSW 6.0 mph9.7 kmh 29.95 in1014.2 mb 0.00 in0.0 mm 0.00 in0.0 mm 0.00 in0.0 mm
12:50 AM 83.6°F28.7°C 61.2°F16.2°C 47% 3.0 mph SSW4.8 kmh SSW 7.0 mph11.3 kmh 29.95 in1014.2 mb 0.00 in0.0 mm 0.00 in0.0 mm 0.00 in0.0 mm
12:45 AM 83.7°F28.7°C 61.2°F16.2°C 47% Calm Calm 5.0 mph8.0 kmh 29.95 in1014.2 mb 0.00 in0.0 mm 0.00 in0.0 mm 0.00 in0.0 mm
12:40 AM 83.7°F28.7°C 60.6°F15.9°C 46% 2.0 mph SSW3.2 kmh SSW 5.0 mph8.0 kmh 29.95 in1014.2 mb 0.00 in0.0 mm 0.00 in0.0 mm 0.00 in0.0 mm
12:35 AM 83.8°F28.8°C 60.7°F15.9°C 46% 1.0 mph SSW1.6 kmh SSW 5.0 mph8.0 kmh 29.95 in1014.2 mb 0.00 in0.0 mm 0.00 in0.0 mm 0.00 in0.0 mm
12:30 AM 83.9°F28.8°C 60.8°F16.0°C 46% Calm Calm 7.0 mph11.3 kmh 29.95 in1014.2 mb 0.00 in0.0 mm 0.00 in0.0 mm 0.00 in0.0 mm
12:25 AM 83.9°F28.8°C 61.4°F16.3°C 47% 2.0 mph SSW3.2 kmh SSW 7.0 mph11.3 kmh 29.95 in1014.2 mb 0.00 in0.0 mm 0.00 in0.0 mm 0.00 in0.0 mm
12:20 AM 84.0°F28.9°C 61.5°F16.4°C 47% 6.0 mph S9.7 kmh S 9.0 mph14.5 kmh 29.95 in1014.2 mb 0.00 in0.0 mm 0.00 in0.0 mm 0.00 in0.0 mm
12:15 AM 84.1°F28.9°C 62.2°F16.8°C 48% 2.0 mph S3.2 kmh S 8.0 mph12.9 kmh 29.95 in1014.2 mb 0.00 in0.0 mm 0.00 in0.0 mm 0.00 in0.0 mm
12:10 AM 84.3°F29.1°C 63.0°F17.2°C 49% 1.0 mph S1.6 kmh S 11.0 mph17.7 kmh 29.95 in1014.2 mb 0.00 in0.0 mm 0.00 in0.0 mm 0.00 in0.0 mm
12:05 AM 84.5°F29.2°C 63.2°F17.3°C 49% 8.0 mph SSW12.9 kmh SSW 10.0 mph16.1 kmh 29.95 in1014.2 mb 0.00 in0.0 mm 0.00 in0.0 mm 0.00 in0.0 mm
12:00 AM 84.6°F29.2°C 62.7°F17.1°C 48% 8.0 mph S12.9 kmh S 9.0 mph14.5 kmh 29.95 in1014.2 mb 0.00 in0.0 mm 0.00 in0.0 mm 0.00 in0.0 mm